Time;durP1;ratioP1;P1;durP2;ratioP2;P2;SDS_P1;SDS_P2;PMS_P1;PMS_P2;Temp;Humidity;BMP_temperature;BMP_pressure;BME280_temperature;BME280_humidity;BME280_pressure;Samples;Min_cycle;Max_cycle;Signal;HPM_P1;HPM_P2
2023/01/30 00:01:41;;;;;;;8.88;7.40;;;;;;;15.88;40.42;93552.19;4954314;28;20034;-91
2023/01/30 00:04:06;;;;;;;10.73;7.63;;;;;;;15.78;41.13;93553.66;4927900;28;20034;-91
2023/01/30 00:06:32;;;;;;;8.52;6.32;;;;;;;15.83;40.37;93554.91;4921904;28;20057;-91
2023/01/30 00:08:57;;;;;;;8.77;7.07;;;;;;;15.77;40.83;93544.00;4954530;28;20042;-90
2023/01/30 00:11:24;;;;;;;9.40;6.65;;;;;;;15.86;40.43;93551.19;4937628;28;20042;-91
2023/01/30 00:13:49;;;;;;;7.40;6.47;;;;;;;15.81;40.30;93549.19;4949568;28;20114;-91
2023/01/30 00:16:15;;;;;;;10.25;7.07;;;;;;;15.79;40.49;93546.22;4936629;28;20035;-92
2023/01/30 00:18:41;;;;;;;8.82;7.07;;;;;;;15.80;40.66;93545.75;4937383;28;20069;-91
2023/01/30 00:21:08;;;;;;;9.75;6.88;;;;;;;15.73;41.15;93546.94;4936906;28;20035;-91
2023/01/30 00:23:34;;;;;;;9.80;7.30;;;;;;;15.80;40.75;93540.28;4966179;28;20588;-91
2023/01/30 00:25:59;;;;;;;9.73;7.07;;;;;;;15.75;41.43;93544.47;4936999;28;20153;-92
2023/01/30 00:28:25;;;;;;;9.45;7.28;;;;;;;15.75;40.88;93530.84;4921428;28;20041;-91
2023/01/30 00:30:51;;;;;;;8.48;6.22;;;;;;;15.83;40.85;93527.63;4937865;28;20521;-92
2023/01/30 00:33:17;;;;;;;9.88;6.50;;;;;;;15.70;41.31;93528.84;4953146;28;20122;-91
2023/01/30 00:35:44;;;;;;;9.43;6.93;;;;;;;15.82;40.57;93521.44;4953378;28;20038;-91
2023/01/30 00:38:10;;;;;;;9.23;6.97;;;;;;;15.72;41.04;93522.91;4937242;28;20046;-91
2023/01/30 00:40:35;;;;;;;7.80;6.45;;;;;;;15.82;40.59;93521.44;4928960;28;20087;-91
2023/01/30 00:48:28;;;;;;;6.90;5.88;;;;;;;15.79;40.47;93500.66;4941810;28;20576;-91
2023/01/30 00:50:53;;;;;;;9.00;6.68;;;;;;;15.82;40.33;93505.09;4937343;28;20533;-91
2023/01/30 00:53:19;;;;;;;7.30;5.90;;;;;;;15.75;40.69;93509.06;4952925;28;20047;-91
2023/01/30 00:55:44;;;;;;;7.78;6.53;;;;;;;15.78;40.29;93499.16;4936392;28;20050;-91
2023/01/30 00:58:10;;;;;;;8.65;6.97;;;;;;;15.79;40.55;93495.19;4941120;28;20072;-91
2023/01/30 01:00:36;;;;;;;10.15;7.25;;;;;;;15.79;40.79;93500.66;4956742;28;20377;-92
2023/01/30 01:03:02;;;;;;;8.15;5.88;;;;;;;15.84;40.51;93497.16;4956138;28;20066;-91
2023/01/30 01:05:28;;;;;;;8.07;6.38;;;;;;;15.74;41.27;93493.19;4927451;28;20049;-91
2023/01/30 01:07:53;;;;;;;9.82;6.63;;;;;;;15.70;41.14;93487.22;4952965;28;20511;-91
2023/01/30 01:10:19;;;;;;;7.22;5.53;;;;;;;15.76;40.53;93480.56;4951878;28;20042;-92
2023/01/30 01:12:45;;;;;;;6.45;5.70;;;;;;;15.80;40.28;93490.47;4953076;28;20043;-90
2023/01/30 01:15:11;;;;;;;8.73;6.57;;;;;;;15.78;40.09;93490.97;4920561;28;20051;-91
2023/01/30 01:17:37;;;;;;;7.78;6.32;;;;;;;15.76;40.96;93480.56;4937256;28;20043;-91
2023/01/30 01:20:03;;;;;;;7.53;6.10;;;;;;;15.77;40.47;93489.47;4936957;28;20062;-90
2023/01/30 01:22:28;;;;;;;9.77;6.80;;;;;;;15.70;41.40;93482.53;4958396;28;20366;-90
2023/01/30 01:24:54;;;;;;;7.40;5.55;;;;;;;15.76;40.23;93477.84;4932154;29;20042;-90
2023/01/30 01:27:19;;;;;;;7.72;6.38;;;;;;;15.72;41.21;93471.13;4917266;28;20396;-91
2023/01/30 01:29:45;;;;;;;7.40;5.80;;;;;;;15.81;40.54;93454.53;4918142;29;20036;-91
2023/01/30 01:32:10;;;;;;;7.28;6.07;;;;;;;15.73;40.80;93448.84;4901113;28;20035;-92
2023/01/30 01:34:35;;;;;;;7.15;5.72;;;;;;;15.74;41.21;93435.97;4914706;28;20030;-91
2023/01/30 01:37:01;;;;;;;8.18;5.82;;;;;;;15.81;40.39;93434.72;4949129;29;20039;-91
2023/01/30 01:41:00;;;;;;;6.50;5.80;;;;;;;15.81;40.38;93432.72;4917149;29;20035;-90
2023/01/30 01:42:15;;;;;;;8.80;6.68;;;;;;;15.74;40.98;93417.63;4936448;28;20074;-91
2023/01/30 01:45:10;;;;;;;7.60;6.15;;;;;;;15.76;40.95;93428.78;4917676;29;20047;-91
2023/01/30 01:47:35;;;;;;;7.65;6.45;;;;;;;15.74;40.74;93431.25;4963669;28;20046;-91
2023/01/30 01:50:01;;;;;;;8.80;6.38;;;;;;;15.74;40.94;93442.16;4936496;28;20043;-91
2023/01/30 01:52:27;;;;;;;8.45;5.75;;;;;;;15.72;41.49;93428.28;4935878;28;20406;-91
2023/01/30 01:54:54;;;;;;;7.35;5.88;;;;;;;15.69;41.74;93431.22;4921074;28;20047;-91
2023/01/30 01:57:24;;;;;;;6.68;5.20;;;;;;;15.80;40.70;93425.81;4953015;28;20039;-91
2023/01/30 01:59:51;;;;;;;7.55;6.03;;;;;;;15.75;41.22;93421.09;4939432;28;20042;-92
2023/01/30 02:02:17;;;;;;;6.72;6.00;;;;;;;15.81;40.67;93419.09;4956102;28;20039;-91
2023/01/30 02:05:01;;;;;;;7.68;5.82;;;;;;;15.73;41.13;93416.13;4929174;29;20595;-90
2023/01/30 02:07:28;;;;;;;8.35;5.68;;;;;;;15.70;41.24;93410.91;4936197;28;20126;-91
2023/01/30 02:09:53;;;;;;;7.90;5.57;;;;;;;15.73;41.16;93405.22;4920899;29;20039;-92
2023/01/30 02:12:18;;;;;;;6.90;5.70;;;;;;;15.75;40.81;93408.22;4939241;28;20046;-91
2023/01/30 02:14:44;;;;;;;7.63;6.03;;;;;;;15.68;41.13;93397.78;4939968;28;20051;-92
2023/01/30 02:17:09;;;;;;;6.28;4.88;;;;;;;15.81;40.31;93410.19;4954352;28;20440;-91
2023/01/30 02:19:48;;;;;;;7.05;5.50;;;;;;;15.73;41.03;93399.78;4948244;28;20042;-91
2023/01/30 02:22:32;;;;;;;8.43;6.25;;;;;;;15.70;41.07;93400.03;4939424;28;20059;-91
2023/01/30 02:25:28;;;;;;;7.75;5.53;;;;;;;15.71;41.03;93383.19;4940089;28;20051;-91
2023/01/30 02:28:31;;;;;;;7.45;5.55;;;;;;;15.73;41.24;93388.88;4941244;28;20139;-91
2023/01/30 02:31:01;;;;;;;5.57;4.97;;;;;;;15.76;40.90;93381.69;4971643;28;20058;-91
2023/01/30 02:33:55;;;;;;;6.85;6.00;;;;;;;15.69;41.32;93380.19;4948563;28;20042;-90
2023/01/30 02:36:35;;;;;;;6.43;5.68;;;;;;;15.75;40.89;93372.78;4956484;28;20031;-91
2023/01/30 02:39:16;;;;;;;7.03;5.40;;;;;;;15.70;40.96;93380.94;4955244;28;20093;-91
2023/01/30 02:41:56;;;;;;;;;;;;;;;15.73;40.30;93377.97;4954595;28;20150;-91
2023/01/30 02:44:33;;;;;;;6.35;5.40;;;;;;;15.65;40.96;93384.41;4939128;28;20361;-91
2023/01/30 02:47:03;;;;;;;7.07;4.80;;;;;;;15.73;40.63;93383.44;4944701;28;20489;-91
2023/01/30 02:49:30;;;;;;;7.03;5.63;;;;;;;15.69;40.94;93384.91;4958506;28;20034;-91
2023/01/30 02:51:56;;;;;;;8.20;5.55;;;;;;;15.72;40.92;93379.22;4957933;28;20460;-91
2023/01/30 02:54:21;;;;;;;6.00;4.97;;;;;;;15.77;40.08;93367.59;4941647;28;20046;-92
2023/01/30 02:56:48;;;;;;;6.25;4.93;;;;;;;15.80;40.06;93379.47;4955141;28;20046;-92
2023/01/30 02:59:16;;;;;;;7.32;5.15;;;;;;;15.78;40.17;93373.78;4954219;28;20039;-92
2023/01/30 03:01:48;;;;;;;6.32;5.10;;;;;;;15.74;40.91;93371.28;4939128;28;20101;-91
2023/01/30 03:04:38;;;;;;;6.15;4.85;;;;;;;15.79;40.25;93369.06;4970877;28;20130;-92
2023/01/30 03:07:25;;;;;;;6.70;5.43;;;;;;;15.66;41.00;93362.09;4953992;28;20108;-90
2023/01/30 03:10:05;;;;;;;7.80;5.30;;;;;;;15.71;40.39;93369.56;4954078;28;20272;-92
2023/01/30 03:12:55;;;;;;;6.55;5.65;;;;;;;15.68;41.00;93372.50;4939521;28;20042;-92
2023/01/30 03:15:34;;;;;;;6.73;5.37;;;;;;;15.70;40.79;93370.03;4924594;28;20039;-91
2023/01/30 03:17:59;;;;;;;7.13;5.22;;;;;;;15.66;40.78;93372.25;4938992;28;20043;-92
2023/01/30 03:20:25;;;;;;;4.95;4.45;;;;;;;15.66;40.62;93359.38;4954314;28;20122;-92
2023/01/30 03:22:50;;;;;;;6.97;5.50;;;;;;;15.66;40.96;93361.34;4938591;28;20047;-91
2023/01/30 03:25:18;;;;;;;6.05;5.07;;;;;;;15.73;40.44;93364.34;4938101;28;20038;-91
2023/01/30 03:27:44;;;;;;;5.07;4.55;;;;;;;15.72;40.57;93371.03;4919384;29;20039;-92
2023/01/30 03:30:10;;;;;;;5.45;4.68;;;;;;;15.75;40.09;93369.31;4934515;28;20089;-92
2023/01/30 03:32:35;;;;;;;7.50;5.35;;;;;;;15.75;40.37;93370.06;4903757;29;20039;-92
2023/01/30 03:35:01;;;;;;;7.15;5.28;;;;;;;15.76;39.95;93365.34;4941787;28;20397;-92
2023/01/30 03:37:26;;;;;;;7.10;4.85;;;;;;;15.78;40.02;93368.31;4956259;28;20034;-92
2023/01/30 03:39:52;;;;;;;6.13;4.93;;;;;;;15.76;40.22;93368.81;4954398;28;20034;-91
2023/01/30 03:42:17;;;;;;;5.80;5.03;;;;;;;15.71;40.64;93360.63;4953933;28;20037;-91
2023/01/30 03:44:43;;;;;;;4.70;4.20;;;;;;;15.76;40.17;93362.63;4938183;28;20034;-91
2023/01/30 03:47:10;;;;;;;6.57;5.43;;;;;;;15.69;40.04;93360.38;4941920;28;20042;-91
2023/01/30 03:49:35;;;;;;;6.18;5.15;;;;;;;15.72;40.28;93362.88;4941066;28;20066;-91
2023/01/30 03:52:02;;;;;;;6.05;4.35;;;;;;;15.72;40.68;93351.97;4938164;28;20038;-91
2023/01/30 03:54:27;;;;;;;5.82;4.78;;;;;;;15.79;40.55;93352.72;4953754;28;20040;-91
2023/01/30 03:56:52;;;;;;;5.03;4.35;;;;;;;15.76;40.17;93347.00;4930651;28;20077;-92
2023/01/30 03:59:18;;;;;;;5.53;4.57;;;;;;;15.71;40.64;93341.56;4949858;28;20047;-92
2023/01/30 04:01:43;;;;;;;5.78;4.68;;;;;;;15.75;40.33;93342.81;4947898;28;20027;-91
2023/01/30 04:04:09;;;;;;;7.25;5.10;;;;;;;15.72;40.88;93341.06;4956513;28;20043;-92
2023/01/30 04:06:34;;;;;;;4.97;4.05;;;;;;;15.67;40.84;93336.34;4957489;28;20042;-92
2023/01/30 04:09:00;;;;;;;6.15;4.45;;;;;;;15.79;40.15;93328.19;4965532;28;20058;-92
2023/01/30 04:11:25;;;;;;;6.82;5.03;;;;;;;15.79;40.39;93320.00;4912454;28;20035;-91
2023/01/30 04:13:50;;;;;;;4.60;4.10;;;;;;;15.75;40.51;93312.09;4921934;28;20043;-91
2023/01/30 04:16:21;;;;;;;5.05;4.10;;;;;;;15.74;40.61;93316.78;4937393;28;20038;-91
2023/01/30 04:18:47;;;;;;;5.30;4.80;;;;;;;15.70;40.76;93316.28;4937284;28;20066;-91
2023/01/30 04:21:12;;;;;;;4.57;4.07;;;;;;;15.80;39.79;93310.59;4937146;28;20061;-92
2023/01/30 04:23:38;;;;;;;6.00;4.63;;;;;;;15.68;40.58;93299.69;4936368;28;20035;-92
2023/01/30 04:26:04;;;;;;;6.63;4.43;;;;;;;15.70;40.56;93294.47;4937037;28;20212;-91
2023/01/30 04:28:29;;;;;;;6.45;4.45;;;;;;;15.75;40.48;93279.38;4936869;28;20055;-91
2023/01/30 04:30:54;;;;;;;4.30;3.90;;;;;;;15.79;39.91;93279.88;4937056;28;20045;-91
2023/01/30 04:33:20;;;;;;;6.57;5.05;;;;;;;15.70;40.88;93272.69;4937256;28;20031;-92
2023/01/30 04:35:56;;;;;;;5.63;4.75;;;;;;;15.74;40.54;93265.00;4943467;28;20050;-91
2023/01/30 04:38:21;;;;;;;5.07;4.57;;;;;;;15.73;40.21;93258.06;4931756;28;20493;-92
2023/01/30 04:40:50;;;;;;;5.35;4.43;;;;;;;15.71;40.84;93265.25;4923465;28;20074;-91
2023/01/30 04:43:16;;;;;;;5.22;4.50;;;;;;;15.69;40.82;93252.13;4936981;28;20089;-91
2023/01/30 04:45:42;;;;;;;5.35;4.68;;;;;;;15.69;40.93;93246.66;4921562;28;20435;-92
2023/01/30 04:48:08;;;;;;;6.43;4.88;;;;;;;15.71;40.76;93262.53;4936726;28;20130;-91
2023/01/30 04:50:33;;;;;;;5.75;4.60;;;;;;;15.64;40.79;93258.31;4952629;28;20089;-91
2023/01/30 04:52:59;;;;;;;4.45;3.90;;;;;;;15.71;40.19;93266.00;4953576;28;20043;-92
2023/01/30 04:55:24;;;;;;;4.78;4.20;;;;;;;15.76;40.12;93280.88;4952679;28;20401;-92
2023/01/30 04:57:49;;;;;;;6.50;4.70;;;;;;;15.69;40.69;93273.19;4921513;28;20066;-92
2023/01/30 05:00:15;;;;;;;5.55;4.40;;;;;;;15.72;40.63;93272.19;4932303;28;20066;-91
2023/01/30 05:02:41;;;;;;;6.30;4.55;;;;;;;15.71;40.55;93274.16;4921756;28;20455;-92
2023/01/30 05:05:06;;;;;;;4.90;4.20;;;;;;;15.73;39.98;93282.59;4942436;28;20054;-91
2023/01/30 05:07:32;;;;;;;6.40;4.70;;;;;;;15.70;40.72;93255.59;4937247;28;20122;-91
2023/01/30 05:09:57;;;;;;;4.60;4.07;;;;;;;15.82;39.89;93253.59;4952957;28;20035;-92
2023/01/30 05:12:23;;;;;;;6.18;4.70;;;;;;;15.71;40.63;93273.44;4971093;28;20033;-91
2023/01/30 05:14:48;;;;;;;6.07;4.13;;;;;;;15.77;39.85;93263.28;4940839;28;20108;-92
2023/01/30 05:17:14;;;;;;;5.03;4.18;;;;;;;15.81;39.73;93271.19;4955691;28;20053;-91
2023/01/30 05:19:39;;;;;;;5.72;4.32;;;;;;;15.78;39.96;93270.22;4955455;28;20039;-91
2023/01/30 05:22:04;;;;;;;5.10;4.30;;;;;;;15.80;39.73;93269.72;4968550;28;20666;-91
2023/01/30 05:24:30;;;;;;;4.55;4.07;;;;;;;15.62;40.24;93260.03;4962680;28;20035;-91
2023/01/30 05:26:55;;;;;;;5.20;4.28;;;;;;;15.67;40.58;93253.84;4956433;28;20104;-91
2023/01/30 05:29:21;;;;;;;6.05;4.22;;;;;;;15.56;40.98;93235.53;4955688;28;20045;-91
2023/01/30 05:31:48;;;;;;;5.32;4.38;;;;;;;15.60;40.03;93235.28;4941861;28;20027;-92
2023/01/30 05:34:13;;;;;;;10.43;7.57;;;;;;;15.55;40.94;93238.72;4976709;28;20030;-92
2023/01/30 05:36:40;;;;;;;9.40;5.43;;;;;;;15.70;41.54;93229.09;4949638;28;20039;-91
2023/01/30 05:39:06;;;;;;;38.42;23.90;;;;;;;15.68;40.80;93233.53;4927971;28;20039;-91
2023/01/30 05:41:32;;;;;;;14.15;9.60;;;;;;;15.79;41.15;93222.63;4936101;28;20192;-91
2023/01/30 05:43:57;;;;;;;9.10;6.90;;;;;;;15.79;41.07;93221.91;4925753;28;20038;-89
2023/01/30 05:46:23;;;;;;;13.50;9.27;;;;;;;15.89;40.50;93218.41;4944426;29;20035;-89
2023/01/30 05:48:50;;;;;;;15.70;9.80;;;;;;;15.79;40.34;93227.34;4955888;28;20038;-90
2023/01/30 05:51:18;;;;;;;22.30;10.43;;;;;;;15.73;40.53;93222.63;4940021;28;20028;-93
2023/01/30 05:53:45;;;;;;;30.05;12.85;;;;;;;15.75;40.57;93203.06;4951324;28;20046;-94
2023/01/30 05:56:11;;;;;;;27.83;12.43;;;;;;;15.69;40.27;93194.91;4947364;28;20046;-95
2023/01/30 05:58:43;;;;;;;21.60;8.50;;;;;;;15.68;40.46;93179.03;4940616;28;20030;-93
2023/01/30 06:01:11;;;;;;;21.35;10.73;;;;;;;15.69;40.49;93186.72;4937973;28;20580;-93
2023/01/30 06:03:37;;;;;;;29.95;12.27;;;;;;;15.70;40.33;93182.75;4939993;29;20043;-90
2023/01/30 06:06:05;;;;;;;36.55;20.52;;;;;;;15.72;40.69;93202.06;4960683;28;20050;-89
2023/01/30 06:08:33;;;;;;;111.30;35.75;;;;;;;15.74;39.55;93213.22;4954190;28;20050;-95
2023/01/30 06:11:33;;;;;;;99.38;35.03;;;;;;;15.79;38.63;93211.00;4975193;28;20047;-91
2023/01/30 06:14:00;;;;;;;94.15;37.22;;;;;;;15.71;39.64;93222.41;4935216;28;20046;-89
2023/01/30 06:16:26;;;;;;;104.93;43.97;;;;;;;15.77;39.83;93204.06;4950724;28;20035;-89
2023/01/30 06:18:51;;;;;;;89.60;39.15;;;;;;;15.60;38.75;93227.84;4946218;28;20040;-92
2023/01/30 06:21:17;;;;;;;207.13;53.50;;;;;;;15.67;38.06;93226.59;4923473;28;20039;-93
2023/01/30 06:23:45;;;;;;;101.82;41.88;;;;;;;15.75;38.66;93228.34;4911438;28;20122;-96
2023/01/30 06:26:31;;;;;;;141.95;61.50;;;;;;;15.69;39.42;93240.47;4900687;29;20039;-92
2023/01/30 06:28:57;;;;;;;463.55;167.18;;;;;;;15.71;39.84;93233.28;4912510;29;20134;-92
2023/01/30 06:31:40;;;;;;;144.90;55.08;;;;;;;15.70;39.93;93247.41;4926841;29;20900;-93
2023/01/30 06:34:05;;;;;;;170.95;54.53;;;;;;;15.69;39.70;93249.41;4902475;28;20486;-92
2023/01/30 06:36:31;;;;;;;107.20;41.83;;;;;;;15.81;39.79;93250.13;4929349;28;20058;-92
2023/01/30 06:39:03;;;;;;;120.15;47.08;;;;;;;15.69;40.05;93238.50;4915822;29;20653;-96
2023/01/30 06:41:31;;;;;;;99.18;42.63;;;;;;;15.77;39.87;93250.38;4906910;29;20046;-94
2023/01/30 06:43:57;;;;;;;108.10;41.95;;;;;;;15.76;39.53;93243.44;4905667;28;20058;-92
2023/01/30 06:46:23;;;;;;;135.52;50.65;;;;;;;15.64;40.14;93255.59;4931230;28;20051;-92
2023/01/30 06:48:48;;;;;;;118.20;48.10;;;;;;;15.72;40.22;93255.84;4945502;29;20070;-93
2023/01/30 06:51:19;;;;;;;130.68;51.60;;;;;;;15.70;39.86;93250.88;4916995;28;20047;-93
2023/01/30 06:53:46;;;;;;;106.35;47.15;;;;;;;15.80;40.08;93245.94;4899339;29;20075;-92
2023/01/30 06:56:11;;;;;;;115.30;52.17;;;;;;;15.68;40.00;93228.09;4936912;29;20080;-95
2023/01/30 06:58:40;;;;;;;122.80;47.75;;;;;;;15.75;40.17;93219.41;4907085;29;20051;-94
2023/01/30 07:01:06;;;;;;;101.97;45.15;;;;;;;15.80;40.26;93210.50;4948329;28;20042;-93
2023/01/30 07:03:31;;;;;;;120.75;47.20;;;;;;;15.85;40.08;93207.00;4964579;28;20054;-91
2023/01/30 07:06:06;;;;;;;110.20;42.28;;;;;;;15.89;39.88;93207.50;4931736;28;20044;-88
2023/01/30 07:08:35;;;;;;;113.47;50.67;;;;;;;15.89;40.80;93193.84;4939056;29;20122;-89
2023/01/30 07:11:03;;;;;;;124.80;47.20;;;;;;;15.95;40.76;93197.31;4950241;28;20046;-91
2023/01/30 07:13:28;;;;;;;105.30;48.30;;;;;;;15.94;40.59;93189.66;4936576;28;20047;-89
2023/01/30 07:15:54;;;;;;;90.50;40.08;;;;;;;16.01;40.68;93183.69;4942575;29;20043;-91
2023/01/30 07:18:19;;;;;;;89.35;40.13;;;;;;;16.00;40.23;93169.31;4908354;29;20466;-91
2023/01/30 07:20:49;;;;;;;94.28;39.05;;;;;;;15.98;39.68;93171.78;4937031;28;20090;-93
2023/01/30 07:23:16;;;;;;;148.13;79.35;;;;;;;16.02;39.80;93166.09;4898220;28;20044;-91
2023/01/30 07:25:42;;;;;;;85.90;38.85;;;;;;;15.89;39.97;93180.22;4936080;28;21170;-90
2023/01/30 07:28:07;;;;;;;71.68;38.55;;;;;;;15.95;40.03;93170.06;4955817;28;20035;-90
2023/01/30 07:30:34;;;;;;;85.82;37.42;;;;;;;16.00;39.54;93177.50;4937950;28;20073;-89
2023/01/30 07:33:00;;;;;;;84.18;38.17;;;;;;;16.01;39.67;93178.22;4925036;28;20042;-91
2023/01/30 07:35:30;;;;;;;123.03;53.40;;;;;;;15.98;39.89;93212.69;4938918;28;20062;-93
2023/01/30 07:37:55;;;;;;;125.10;58.55;;;;;;;15.99;39.84;93214.16;4953292;28;20038;-91
2023/01/30 07:40:21;;;;;;;141.70;64.22;;;;;;;16.00;39.86;93202.03;4947220;28;20420;-94
2023/01/30 07:43:05;;;;;;;223.52;108.57;;;;;;;16.03;39.89;93203.72;4957269;28;20432;-91
2023/01/30 07:45:34;;;;;;;165.63;81.78;;;;;;;16.00;39.54;93204.75;4927450;28;20047;-90
2023/01/30 07:48:00;;;;;;;253.35;120.22;;;;;;;15.96;39.99;93211.69;4940364;28;20047;-91
2023/01/30 07:50:30;;;;;;;219.77;100.15;;;;;;;16.01;39.99;93205.50;4893771;29;20155;-91
2023/01/30 07:52:56;;;;;;;;;;;;;;;16.00;39.68;93195.81;4894468;29;20062;-92
2023/01/30 07:55:22;;;;;;;208.57;106.43;;;;;;;15.98;39.96;93190.13;4930109;29;19923;-92
2023/01/30 07:57:47;;;;;;;196.77;100.88;;;;;;;16.02;39.61;93190.63;4870742;29;20100;-93
2023/01/30 08:00:14;;;;;;;213.90;104.63;;;;;;;15.98;40.28;93192.84;4867133;29;20076;-91
2023/01/30 08:02:40;;;;;;;204.10;102.65;;;;;;;15.96;39.91;93195.34;4887188;29;20036;-92
2023/01/30 08:05:06;;;;;;;195.40;101.57;;;;;;;15.91;39.86;93188.66;4884664;29;20041;-88
2023/01/30 08:07:31;;;;;;;197.95;98.20;;;;;;;15.98;39.70;93185.41;4882813;29;20052;-88
2023/01/30 08:09:57;;;;;;;182.55;94.13;;;;;;;15.97;39.93;93192.13;4889256;29;20124;-92
2023/01/30 08:12:22;;;;;;;193.50;99.50;;;;;;;15.88;40.32;93195.09;4878774;29;20053;-88
2023/01/30 08:14:48;;;;;;;172.90;90.60;;;;;;;15.98;39.75;93198.31;4906003;29;20145;-90
2023/01/30 08:17:13;;;;;;;180.18;89.75;;;;;;;15.97;40.12;93191.38;4891235;29;20052;-90
2023/01/30 08:19:39;;;;;;;168.75;91.70;;;;;;;15.94;39.91;93190.38;4879674;29;20425;-90
2023/01/30 08:22:04;;;;;;;180.55;92.50;;;;;;;15.94;39.94;93206.00;4924287;28;20031;-90
2023/01/30 08:24:30;;;;;;;151.25;83.88;;;;;;;15.94;39.98;93186.91;4925044;28;20038;-89
2023/01/30 08:26:55;;;;;;;155.07;76.75;;;;;;;15.96;40.40;93184.44;4942042;28;20039;-90
2023/01/30 08:29:20;;;;;;;151.88;79.38;;;;;;;16.09;39.82;93168.28;4942535;28;20046;-91
2023/01/30 08:31:47;;;;;;;160.80;87.68;;;;;;;16.02;39.75;93174.25;4925319;28;20054;-92
2023/01/30 08:34:12;;;;;;;169.00;86.57;;;;;;;15.97;40.12;93178.47;4928381;28;20037;-92
2023/01/30 08:36:38;;;;;;;190.68;92.05;;;;;;;15.97;40.04;93181.22;4916981;28;20410;-93
2023/01/30 08:39:03;;;;;;;181.98;82.22;;;;;;;15.92;38.52;93186.66;4942616;28;20517;-89
2023/01/30 08:41:29;;;;;;;176.43;77.22;;;;;;;15.93;38.17;93188.16;4941200;28;20050;-91
2023/01/30 08:43:54;;;;;;;206.23;87.35;;;;;;;15.92;39.22;93200.31;4939909;28;20043;-93
2023/01/30 08:46:20;;;;;;;181.82;86.45;;;;;;;15.93;39.50;93188.91;4953081;28;20031;-92
2023/01/30 08:48:50;;;;;;;174.95;83.07;;;;;;;16.03;39.63;93192.06;4927183;28;20077;-94
2023/01/30 08:51:15;;;;;;;180.57;80.20;;;;;;;15.93;39.24;93205.25;4940508;28;20046;-93
2023/01/30 08:53:41;;;;;;;178.45;77.95;;;;;;;15.91;39.80;93202.28;4927234;28;20107;-92
2023/01/30 08:56:06;;;;;;;136.73;58.17;;;;;;;15.83;38.33;93206.75;4926460;28;20057;-92
2023/01/30 08:58:32;;;;;;;109.95;49.92;;;;;;;15.66;36.45;93214.97;4945713;28;20094;-90
2023/01/30 09:00:57;;;;;;;89.40;40.33;;;;;;;15.43;35.44;93208.75;4971364;28;20662;-89
2023/01/30 09:03:23;;;;;;;88.93;38.47;;;;;;;15.46;35.80;93215.19;4920974;28;20093;-92
2023/01/30 09:05:55;;;;;;;94.55;41.70;;;;;;;15.51;36.33;93225.34;4918044;28;20043;-91
2023/01/30 09:08:20;;;;;;;121.60;56.40;;;;;;;15.64;37.27;93233.03;4941803;28;20371;-90
2023/01/30 09:10:49;;;;;;;152.73;64.10;;;;;;;15.62;38.80;93241.72;4942520;28;20113;-92
2023/01/30 09:13:14;;;;;;;151.40;61.67;;;;;;;15.66;38.94;93236.75;4957494;28;20038;-88
2023/01/30 09:15:41;;;;;;;122.30;59.97;;;;;;;15.63;39.38;93235.03;4925810;28;20074;-91
2023/01/30 09:18:06;;;;;;;121.88;57.55;;;;;;;15.63;39.88;93232.31;4938110;28;20062;-90
2023/01/30 09:20:33;;;;;;;100.18;51.17;;;;;;;15.75;39.53;93222.88;4923494;28;20494;-92
2023/01/30 09:23:00;;;;;;;121.03;59.45;;;;;;;15.67;39.76;93221.91;4920544;28;20038;-89
2023/01/30 09:25:25;;;;;;;114.75;55.85;;;;;;;15.75;39.62;93230.31;4942089;28;20101;-88
2023/01/30 09:27:50;;;;;;;162.13;73.07;;;;;;;15.71;39.87;93227.09;4960551;28;20035;-92
2023/01/30 09:30:16;;;;;;;249.18;86.13;;;;;;;15.70;39.55;93217.44;4952902;28;20103;-92
2023/01/30 09:32:42;;;;;;;121.22;52.95;;;;;;;15.82;39.32;93220.88;4926444;29;20047;-91
2023/01/30 09:35:07;;;;;;;124.20;49.03;;;;;;;15.75;38.81;93203.81;4944143;28;20034;-89
2023/01/30 09:37:33;;;;;;;125.63;51.55;;;;;;;15.64;39.27;93205.78;4944319;28;20042;-93
2023/01/30 09:39:59;;;;;;;125.18;52.55;;;;;;;15.76;39.48;93204.56;4943469;28;20045;-90
2023/01/30 09:42:42;;;;;;;102.07;55.05;;;;;;;15.75;39.54;93213.97;4943507;28;20031;-91
2023/01/30 09:45:21;;;;;;;111.55;51.30;;;;;;;15.74;39.63;93207.78;4957036;28;20524;-93
2023/01/30 09:48:02;;;;;;;129.57;54.45;;;;;;;15.72;40.04;93204.06;4941806;28;20042;-92
2023/01/30 09:50:45;;;;;;;127.07;52.58;;;;;;;15.77;39.65;93211.50;4968632;28;20074;-93
2023/01/30 09:53:36;;;;;;;118.05;54.70;;;;;;;15.77;40.22;93216.94;4961804;28;20035;-93
2023/01/30 09:56:01;;;;;;;118.88;52.92;;;;;;;15.78;40.54;93212.97;4939878;29;20050;-92
2023/01/30 09:58:49;;;;;;;136.13;53.25;;;;;;;15.80;40.04;93201.56;4954854;29;20043;-91
2023/01/30 10:01:43;;;;;;;104.85;49.78;;;;;;;15.82;40.27;93199.06;4956262;28;20055;-90
2023/01/30 10:04:31;;;;;;;116.38;49.72;;;;;;;15.80;40.27;93194.16;4945807;28;20125;-90
2023/01/30 10:07:09;;;;;;;118.60;50.40;;;;;;;15.86;40.54;93192.13;4941664;28;20761;-87
2023/01/30 10:09:53;;;;;;;121.45;48.50;;;;;;;15.79;40.33;93178.28;4968241;28;20178;-91
2023/01/30 10:12:28;;;;;;;127.35;53.70;;;;;;;15.81;40.36;93187.44;4984001;28;20066;-92
2023/01/30 10:15:15;;;;;;;109.40;51.80;;;;;;;15.81;40.25;93175.78;4957278;28;20402;-91
2023/01/30 10:18:01;;;;;;;105.82;48.47;;;;;;;15.82;40.03;93166.38;4941667;28;20042;-91
2023/01/30 10:20:47;;;;;;;126.72;53.95;;;;;;;15.83;40.22;93176.03;4949700;28;20046;-91
2023/01/30 10:23:21;;;;;;;130.48;62.83;;;;;;;15.87;40.30;93163.63;4957507;28;20039;-90
2023/01/30 10:25:48;;;;;;;122.40;55.28;;;;;;;15.85;40.30;93160.66;4963493;28;20034;-90
2023/01/30 10:28:19;;;;;;;124.72;54.55;;;;;;;15.86;40.54;93145.03;4955929;28;20058;-91
2023/01/30 10:30:45;;;;;;;125.85;61.13;;;;;;;15.88;40.61;93139.84;4925278;28;20721;-89
2023/01/30 10:33:20;;;;;;;135.68;65.50;;;;;;;16.01;41.08;93154.44;4936704;28;20046;-90
2023/01/30 10:35:46;;;;;;;132.18;62.50;;;;;;;15.89;40.47;93135.88;4923878;28;20043;-88
2023/01/30 10:38:20;;;;;;;131.82;64.13;;;;;;;15.91;40.72;93125.22;4920960;28;20070;-89
2023/01/30 10:40:57;;;;;;;121.90;58.88;;;;;;;15.82;40.45;93114.59;4936892;29;20383;-88
2023/01/30 10:43:31;;;;;;;132.50;59.83;;;;;;;15.90;40.25;93104.66;4933871;28;20035;-89
2023/01/30 10:46:09;;;;;;;150.80;61.75;;;;;;;15.90;40.36;93107.38;4939141;28;20047;-91
2023/01/30 10:49:08;;;;;;;126.28;60.83;;;;;;;15.95;40.57;93112.06;4976973;28;20062;-91
2023/01/30 10:51:44;;;;;;;132.93;61.10;;;;;;;15.93;40.28;93107.13;4943558;28;20038;-89
2023/01/30 10:54:27;;;;;;;137.60;61.78;;;;;;;15.93;40.64;93103.66;4948014;28;20126;-91
2023/01/30 10:57:17;;;;;;;108.90;53.53;;;;;;;15.82;40.09;93093.53;4938160;28;20043;-91
2023/01/30 10:59:55;;;;;;;141.95;61.35;;;;;;;15.85;40.22;93081.63;4962352;28;20384;-93
2023/01/30 11:02:41;;;;;;;143.05;59.97;;;;;;;15.86;40.57;93080.38;4969995;28;20039;-92
2023/01/30 11:05:18;;;;;;;144.60;60.15;;;;;;;15.85;40.32;93069.97;4962847;28;20042;-92
2023/01/30 11:07:45;;;;;;;129.95;58.10;;;;;;;15.86;40.49;93077.66;4926079;28;20462;-92
2023/01/30 11:10:21;;;;;;;114.75;58.05;;;;;;;15.90;40.33;93066.50;4912968;28;20058;-91
2023/01/30 11:12:47;;;;;;;119.90;57.72;;;;;;;15.85;40.54;93059.06;4937477;28;20051;-92
2023/01/30 11:15:13;;;;;;;122.57;54.55;;;;;;;15.83;40.80;93056.84;4941953;28;20067;-91
2023/01/30 11:17:40;;;;;;;82.53;44.25;;;;;;;15.74;39.94;93065.31;4902920;29;20541;-91
2023/01/30 11:20:19;;;;;;;52.47;29.67;;;;;;;15.49;36.53;93053.50;4904176;28;20039;-91
2023/01/30 11:22:49;;;;;;;55.50;29.23;;;;;;;15.33;36.74;93048.84;4950282;28;20418;-91
2023/01/30 11:25:20;;;;;;;67.85;30.52;;;;;;;15.35;36.59;93043.63;4925737;28;20070;-92
2023/01/30 11:27:55;;;;;;;54.42;28.05;;;;;;;15.43;36.69;93039.13;4923872;28;20041;-90
2023/01/30 11:30:21;;;;;;;71.38;36.22;;;;;;;15.65;38.63;93046.53;4938323;28;20062;-92
2023/01/30 11:32:47;;;;;;;62.38;34.95;;;;;;;15.62;38.27;93045.53;4939956;28;20408;-90
2023/01/30 11:35:13;;;;;;;57.03;35.25;;;;;;;15.66;38.92;93035.13;4922930;28;20054;-91
2023/01/30 11:37:40;;;;;;;86.70;48.67;;;;;;;15.76;41.04;93036.34;4955583;28;20026;-91